sensor_id;sensor_type;location;lat;lon;timestamp;P1;durP1;ratioP1;P2;durP2;ratioP2
47960;SDS011;33721;48.852;9.936;2024-02-16T00:00:16;19.92;;;7.85;;
47960;SDS011;33721;48.852;9.936;2024-02-16T00:02:43;17.48;;;8.38;;
47960;SDS011;33721;48.852;9.936;2024-02-16T00:05:09;15.75;;;8.27;;
47960;SDS011;33721;48.852;9.936;2024-02-16T00:07:38;15.25;;;8.05;;
47960;SDS011;33721;48.852;9.936;2024-02-16T00:10:05;17.80;;;8.48;;
47960;SDS011;33721;48.852;9.936;2024-02-16T00:12:32;17.00;;;8.10;;
47960;SDS011;33721;48.852;9.936;2024-02-16T00:15:01;17.83;;;8.00;;
47960;SDS011;33721;48.852;9.936;2024-02-16T00:17:28;21.65;;;8.38;;
47960;SDS011;33721;48.852;9.936;2024-02-16T00:19:57;14.05;;;7.70;;
47960;SDS011;33721;48.852;9.936;2024-02-16T00:22:22;14.30;;;7.88;;
47960;SDS011;33721;48.852;9.936;2024-02-16T00:24:49;14.15;;;7.78;;
47960;SDS011;33721;48.852;9.936;2024-02-16T00:27:15;15.98;;;7.90;;
47960;SDS011;33721;48.852;9.936;2024-02-16T00:29:41;17.42;;;8.13;;
47960;SDS011;33721;48.852;9.936;2024-02-16T00:32:08;14.73;;;7.95;;
47960;SDS011;33721;48.852;9.936;2024-02-16T00:34:34;15.27;;;7.90;;
47960;SDS011;33721;48.852;9.936;2024-02-16T00:37:00;14.68;;;7.68;;
47960;SDS011;33721;48.852;9.936;2024-02-16T00:39:26;15.23;;;7.43;;
47960;SDS011;33721;48.852;9.936;2024-02-16T00:41:53;16.40;;;7.90;;
47960;SDS011;33721;48.852;9.936;2024-02-16T00:44:18;15.70;;;7.72;;
47960;SDS011;33721;48.852;9.936;2024-02-16T00:46:44;16.48;;;7.55;;
47960;SDS011;33721;48.852;9.936;2024-02-16T00:49:10;16.55;;;6.72;;
47960;SDS011;33721;48.852;9.936;2024-02-16T00:51:36;14.60;;;7.15;;
47960;SDS011;33721;48.852;9.936;2024-02-16T00:54:02;15.50;;;7.13;;
47960;SDS011;33721;48.852;9.936;2024-02-16T00:56:28;15.82;;;7.05;;
47960;SDS011;33721;48.852;9.936;2024-02-16T00:58:54;14.43;;;6.97;;
47960;SDS011;33721;48.852;9.936;2024-02-16T01:01:20;13.07;;;6.60;;
47960;SDS011;33721;48.852;9.936;2024-02-16T01:03:47;12.60;;;6.43;;
47960;SDS011;33721;48.852;9.936;2024-02-16T01:06:13;16.80;;;6.40;;
47960;SDS011;33721;48.852;9.936;2024-02-16T01:08:40;15.90;;;6.25;;
47960;SDS011;33721;48.852;9.936;2024-02-16T01:11:06;12.35;;;5.78;;
47960;SDS011;33721;48.852;9.936;2024-02-16T01:13:32;13.52;;;6.13;;
47960;SDS011;33721;48.852;9.936;2024-02-16T01:15:58;13.73;;;6.18;;
47960;SDS011;33721;48.852;9.936;2024-02-16T01:18:24;13.55;;;6.18;;
47960;SDS011;33721;48.852;9.936;2024-02-16T01:20:51;14.00;;;6.18;;
47960;SDS011;33721;48.852;9.936;2024-02-16T01:23:17;13.45;;;6.32;;
47960;SDS011;33721;48.852;9.936;2024-02-16T01:25:42;16.10;;;6.25;;
47960;SDS011;33721;48.852;9.936;2024-02-16T01:28:08;17.95;;;6.75;;
47960;SDS011;33721;48.852;9.936;2024-02-16T01:30:34;17.15;;;6.53;;
47960;SDS011;33721;48.852;9.936;2024-02-16T01:32:59;15.13;;;6.70;;
47960;SDS011;33721;48.852;9.936;2024-02-16T01:35:25;14.02;;;7.22;;
47960;SDS011;33721;48.852;9.936;2024-02-16T01:37:50;12.57;;;6.63;;
47960;SDS011;33721;48.852;9.936;2024-02-16T01:40:16;13.82;;;6.57;;
47960;SDS011;33721;48.852;9.936;2024-02-16T01:42:48;15.52;;;6.25;;
47960;SDS011;33721;48.852;9.936;2024-02-16T01:45:14;13.00;;;6.70;;
47960;SDS011;33721;48.852;9.936;2024-02-16T01:47:41;14.63;;;6.55;;
47960;SDS011;33721;48.852;9.936;2024-02-16T01:50:09;13.18;;;6.68;;
47960;SDS011;33721;48.852;9.936;2024-02-16T01:52:35;11.65;;;6.72;;
47960;SDS011;33721;48.852;9.936;2024-02-16T01:55:03;15.77;;;5.90;;
47960;SDS011;33721;48.852;9.936;2024-02-16T01:57:30;15.18;;;6.32;;
47960;SDS011;33721;48.852;9.936;2024-02-16T01:59:57;12.18;;;6.40;;
47960;SDS011;33721;48.852;9.936;2024-02-16T02:02:23;16.40;;;6.65;;
47960;SDS011;33721;48.852;9.936;2024-02-16T02:04:49;13.75;;;6.10;;
47960;SDS011;33721;48.852;9.936;2024-02-16T02:07:15;19.23;;;6.03;;
47960;SDS011;33721;48.852;9.936;2024-02-16T02:09:41;13.15;;;5.70;;
47960;SDS011;33721;48.852;9.936;2024-02-16T02:12:10;10.88;;;5.30;;
47960;SDS011;33721;48.852;9.936;2024-02-16T02:14:36;10.40;;;5.15;;
47960;SDS011;33721;48.852;9.936;2024-02-16T02:17:02;9.98;;;4.80;;
47960;SDS011;33721;48.852;9.936;2024-02-16T02:19:28;9.43;;;4.45;;
47960;SDS011;33721;48.852;9.936;2024-02-16T02:21:55;9.52;;;4.78;;
47960;SDS011;33721;48.852;9.936;2024-02-16T02:24:21;9.77;;;4.97;;
47960;SDS011;33721;48.852;9.936;2024-02-16T02:26:46;8.50;;;4.68;;
47960;SDS011;33721;48.852;9.936;2024-02-16T02:29:12;9.63;;;5.15;;
47960;SDS011;33721;48.852;9.936;2024-02-16T02:31:38;12.73;;;5.35;;
47960;SDS011;33721;48.852;9.936;2024-02-16T02:34:03;9.93;;;5.13;;
47960;SDS011;33721;48.852;9.936;2024-02-16T02:36:30;14.70;;;5.25;;
47960;SDS011;33721;48.852;9.936;2024-02-16T02:38:57;12.60;;;5.53;;
47960;SDS011;33721;48.852;9.936;2024-02-16T02:41:23;11.77;;;4.93;;
47960;SDS011;33721;48.852;9.936;2024-02-16T02:43:49;11.82;;;5.35;;
47960;SDS011;33721;48.852;9.936;2024-02-16T02:46:15;8.57;;;4.97;;
47960;SDS011;33721;48.852;9.936;2024-02-16T02:48:42;13.38;;;4.85;;
47960;SDS011;33721;48.852;9.936;2024-02-16T02:51:09;10.15;;;5.00;;
47960;SDS011;33721;48.852;9.936;2024-02-16T02:53:34;11.73;;;5.25;;
47960;SDS011;33721;48.852;9.936;2024-02-16T02:56:00;11.63;;;5.35;;
47960;SDS011;33721;48.852;9.936;2024-02-16T02:58:26;8.93;;;4.88;;
47960;SDS011;33721;48.852;9.936;2024-02-16T03:00:51;11.73;;;5.57;;
47960;SDS011;33721;48.852;9.936;2024-02-16T03:03:17;9.88;;;5.10;;
47960;SDS011;33721;48.852;9.936;2024-02-16T03:05:43;9.98;;;4.85;;
47960;SDS011;33721;48.852;9.936;2024-02-16T03:08:08;14.00;;;5.10;;
47960;SDS011;33721;48.852;9.936;2024-02-16T03:10:35;9.50;;;4.72;;
47960;SDS011;33721;48.852;9.936;2024-02-16T03:13:02;11.80;;;5.38;;
47960;SDS011;33721;48.852;9.936;2024-02-16T03:15:28;9.75;;;5.18;;
47960;SDS011;33721;48.852;9.936;2024-02-16T03:17:54;10.95;;;5.47;;
47960;SDS011;33721;48.852;9.936;2024-02-16T03:20:20;9.73;;;5.10;;
47960;SDS011;33721;48.852;9.936;2024-02-16T03:22:46;13.73;;;4.78;;
47960;SDS011;33721;48.852;9.936;2024-02-16T03:25:13;9.30;;;4.40;;
47960;SDS011;33721;48.852;9.936;2024-02-16T03:27:39;10.02;;;4.43;;
47960;SDS011;33721;48.852;9.936;2024-02-16T03:30:06;10.27;;;4.95;;
47960;SDS011;33721;48.852;9.936;2024-02-16T03:32:33;9.38;;;4.75;;
47960;SDS011;33721;48.852;9.936;2024-02-16T03:34:58;8.70;;;4.80;;
47960;SDS011;33721;48.852;9.936;2024-02-16T03:37:25;9.75;;;5.07;;
47960;SDS011;33721;48.852;9.936;2024-02-16T03:39:50;11.13;;;4.72;;
47960;SDS011;33721;48.852;9.936;2024-02-16T03:42:16;11.93;;;5.05;;
47960;SDS011;33721;48.852;9.936;2024-02-16T03:44:45;10.18;;;4.93;;
47960;SDS011;33721;48.852;9.936;2024-02-16T03:47:11;12.07;;;5.13;;
47960;SDS011;33721;48.852;9.936;2024-02-16T03:49:37;8.50;;;4.55;;
47960;SDS011;33721;48.852;9.936;2024-02-16T03:52:03;10.27;;;5.03;;
47960;SDS011;33721;48.852;9.936;2024-02-16T03:54:29;13.77;;;5.60;;
47960;SDS011;33721;48.852;9.936;2024-02-16T03:56:55;9.13;;;5.03;;
47960;SDS011;33721;48.852;9.936;2024-02-16T03:59:21;11.85;;;5.75;;
47960;SDS011;33721;48.852;9.936;2024-02-16T04:01:48;11.00;;;5.45;;
47960;SDS011;33721;48.852;9.936;2024-02-16T04:04:14;16.30;;;6.22;;
47960;SDS011;33721;48.852;9.936;2024-02-16T04:06:40;11.80;;;5.40;;
47960;SDS011;33721;48.852;9.936;2024-02-16T04:09:06;9.93;;;4.78;;
47960;SDS011;33721;48.852;9.936;2024-02-16T04:11:32;9.68;;;4.40;;
47960;SDS011;33721;48.852;9.936;2024-02-16T04:13:58;9.27;;;4.75;;
47960;SDS011;33721;48.852;9.936;2024-02-16T04:16:24;12.88;;;5.35;;
47960;SDS011;33721;48.852;9.936;2024-02-16T04:18:50;13.48;;;6.40;;
47960;SDS011;33721;48.852;9.936;2024-02-16T04:21:16;13.65;;;7.10;;
47960;SDS011;33721;48.852;9.936;2024-02-16T04:23:42;11.95;;;6.00;;
47960;SDS011;33721;48.852;9.936;2024-02-16T04:26:07;12.95;;;5.72;;
47960;SDS011;33721;48.852;9.936;2024-02-16T04:28:34;13.43;;;5.15;;
47960;SDS011;33721;48.852;9.936;2024-02-16T04:31:00;10.50;;;4.85;;
47960;SDS011;33721;48.852;9.936;2024-02-16T04:33:26;12.73;;;5.22;;
47960;SDS011;33721;48.852;9.936;2024-02-16T04:35:51;11.55;;;5.40;;
47960;SDS011;33721;48.852;9.936;2024-02-16T04:38:17;10.52;;;5.28;;
47960;SDS011;33721;48.852;9.936;2024-02-16T04:40:43;12.40;;;5.80;;
47960;SDS011;33721;48.852;9.936;2024-02-16T04:43:09;10.25;;;4.50;;
47960;SDS011;33721;48.852;9.936;2024-02-16T04:45:35;14.00;;;5.35;;
47960;SDS011;33721;48.852;9.936;2024-02-16T04:48:04;10.88;;;4.75;;
47960;SDS011;33721;48.852;9.936;2024-02-16T04:50:31;15.37;;;5.20;;
47960;SDS011;33721;48.852;9.936;2024-02-16T04:52:58;8.85;;;4.95;;
47960;SDS011;33721;48.852;9.936;2024-02-16T04:55:24;8.48;;;4.82;;
47960;SDS011;33721;48.852;9.936;2024-02-16T04:57:49;13.88;;;5.03;;
47960;SDS011;33721;48.852;9.936;2024-02-16T05:00:16;12.80;;;5.25;;
47960;SDS011;33721;48.852;9.936;2024-02-16T05:02:42;13.63;;;5.10;;
47960;SDS011;33721;48.852;9.936;2024-02-16T05:05:07;10.93;;;4.93;;
47960;SDS011;33721;48.852;9.936;2024-02-16T05:07:33;7.32;;;4.07;;
47960;SDS011;33721;48.852;9.936;2024-02-16T05:10:01;9.93;;;5.05;;
47960;SDS011;33721;48.852;9.936;2024-02-16T05:12:27;10.68;;;5.13;;
47960;SDS011;33721;48.852;9.936;2024-02-16T05:14:53;10.52;;;4.70;;
47960;SDS011;33721;48.852;9.936;2024-02-16T05:17:18;11.00;;;4.68;;
47960;SDS011;33721;48.852;9.936;2024-02-16T05:19:47;9.88;;;5.10;;
47960;SDS011;33721;48.852;9.936;2024-02-16T05:22:13;17.42;;;4.93;;
47960;SDS011;33721;48.852;9.936;2024-02-16T05:24:40;10.25;;;4.78;;
47960;SDS011;33721;48.852;9.936;2024-02-16T05:27:05;9.82;;;4.68;;
47960;SDS011;33721;48.852;9.936;2024-02-16T05:29:31;10.38;;;4.93;;
47960;SDS011;33721;48.852;9.936;2024-02-16T05:31:57;8.05;;;4.85;;
47960;SDS011;33721;48.852;9.936;2024-02-16T05:34:22;9.07;;;4.40;;
47960;SDS011;33721;48.852;9.936;2024-02-16T05:36:49;7.82;;;4.47;;
47960;SDS011;33721;48.852;9.936;2024-02-16T05:39:15;9.65;;;4.72;;
47960;SDS011;33721;48.852;9.936;2024-02-16T05:41:52;10.18;;;5.50;;
47960;SDS011;33721;48.852;9.936;2024-02-16T05:44:18;18.30;;;6.13;;
47960;SDS011;33721;48.852;9.936;2024-02-16T05:46:45;11.55;;;6.28;;
47960;SDS011;33721;48.852;9.936;2024-02-16T05:49:10;12.40;;;6.38;;
47960;SDS011;33721;48.852;9.936;2024-02-16T05:51:39;17.33;;;7.32;;
47960;SDS011;33721;48.852;9.936;2024-02-16T05:54:06;13.88;;;6.53;;
47960;SDS011;33721;48.852;9.936;2024-02-16T05:56:33;14.07;;;6.47;;
47960;SDS011;33721;48.852;9.936;2024-02-16T05:59:01;13.45;;;6.35;;
47960;SDS011;33721;48.852;9.936;2024-02-16T06:01:28;19.15;;;8.25;;
47960;SDS011;33721;48.852;9.936;2024-02-16T06:03:54;27.55;;;11.63;;
47960;SDS011;33721;48.852;9.936;2024-02-16T06:06:20;14.40;;;6.80;;
47960;SDS011;33721;48.852;9.936;2024-02-16T06:08:46;12.40;;;6.75;;
47960;SDS011;33721;48.852;9.936;2024-02-16T06:11:11;15.30;;;7.00;;
47960;SDS011;33721;48.852;9.936;2024-02-16T06:13:37;15.23;;;7.45;;
47960;SDS011;33721;48.852;9.936;2024-02-16T06:16:06;13.23;;;6.88;;
47960;SDS011;33721;48.852;9.936;2024-02-16T06:18:33;14.07;;;7.15;;
47960;SDS011;33721;48.852;9.936;2024-02-16T06:20:59;15.50;;;7.30;;
47960;SDS011;33721;48.852;9.936;2024-02-16T06:23:25;16.05;;;7.47;;
47960;SDS011;33721;48.852;9.936;2024-02-16T06:25:51;13.15;;;6.72;;
47960;SDS011;33721;48.852;9.936;2024-02-16T06:28:16;11.68;;;6.60;;
47960;SDS011;33721;48.852;9.936;2024-02-16T06:30:42;14.40;;;6.70;;
47960;SDS011;33721;48.852;9.936;2024-02-16T06:33:07;11.27;;;5.78;;
47960;SDS011;33721;48.852;9.936;2024-02-16T06:35:33;12.40;;;5.88;;
47960;SDS011;33721;48.852;9.936;2024-02-16T06:37:59;12.40;;;5.88;;
47960;SDS011;33721;48.852;9.936;2024-02-16T06:40:24;12.85;;;6.10;;
47960;SDS011;33721;48.852;9.936;2024-02-16T06:42:51;14.48;;;6.10;;
47960;SDS011;33721;48.852;9.936;2024-02-16T06:45:17;14.15;;;5.95;;
47960;SDS011;33721;48.852;9.936;2024-02-16T06:47:42;14.07;;;6.05;;
47960;SDS011;33721;48.852;9.936;2024-02-16T06:50:08;12.95;;;6.25;;
47960;SDS011;33721;48.852;9.936;2024-02-16T06:52:34;10.30;;;5.35;;
47960;SDS011;33721;48.852;9.936;2024-02-16T06:55:00;11.75;;;5.40;;
47960;SDS011;33721;48.852;9.936;2024-02-16T06:57:25;14.00;;;6.05;;
47960;SDS011;33721;48.852;9.936;2024-02-16T06:59:51;11.20;;;5.28;;
47960;SDS011;33721;48.852;9.936;2024-02-16T07:02:18;15.40;;;6.30;;
47960;SDS011;33721;48.852;9.936;2024-02-16T07:04:44;15.77;;;6.28;;
47960;SDS011;33721;48.852;9.936;2024-02-16T07:07:10;17.45;;;7.75;;
47960;SDS011;33721;48.852;9.936;2024-02-16T07:09:36;15.95;;;7.35;;
47960;SDS011;33721;48.852;9.936;2024-02-16T07:12:05;16.27;;;7.18;;
47960;SDS011;33721;48.852;9.936;2024-02-16T07:14:31;15.25;;;6.10;;
47960;SDS011;33721;48.852;9.936;2024-02-16T07:16:57;13.98;;;5.63;;
47960;SDS011;33721;48.852;9.936;2024-02-16T07:19:23;11.85;;;6.20;;
47960;SDS011;33721;48.852;9.936;2024-02-16T07:21:50;17.40;;;6.65;;
47960;SDS011;33721;48.852;9.936;2024-02-16T07:24:15;18.05;;;7.65;;
47960;SDS011;33721;48.852;9.936;2024-02-16T07:26:41;17.77;;;7.65;;
47960;SDS011;33721;48.852;9.936;2024-02-16T07:29:07;20.88;;;7.32;;
47960;SDS011;33721;48.852;9.936;2024-02-16T07:31:33;17.55;;;6.63;;
47960;SDS011;33721;48.852;9.936;2024-02-16T07:33:59;13.10;;;6.88;;
47960;SDS011;33721;48.852;9.936;2024-02-16T07:36:28;17.98;;;7.38;;
47960;SDS011;33721;48.852;9.936;2024-02-16T07:38:54;18.15;;;7.60;;
47960;SDS011;33721;48.852;9.936;2024-02-16T07:41:20;14.63;;;6.32;;
47960;SDS011;33721;48.852;9.936;2024-02-16T07:43:45;14.27;;;6.72;;
47960;SDS011;33721;48.852;9.936;2024-02-16T07:46:11;13.75;;;7.32;;
47960;SDS011;33721;48.852;9.936;2024-02-16T07:48:37;15.60;;;8.55;;
47960;SDS011;33721;48.852;9.936;2024-02-16T07:51:03;19.25;;;8.85;;
47960;SDS011;33721;48.852;9.936;2024-02-16T07:53:29;21.90;;;8.15;;
47960;SDS011;33721;48.852;9.936;2024-02-16T07:55:55;18.20;;;7.35;;
47960;SDS011;33721;48.852;9.936;2024-02-16T07:58:21;17.92;;;7.38;;
47960;SDS011;33721;48.852;9.936;2024-02-16T08:00:47;17.02;;;7.25;;
47960;SDS011;33721;48.852;9.936;2024-02-16T08:03:13;17.92;;;7.75;;
47960;SDS011;33721;48.852;9.936;2024-02-16T08:05:38;15.98;;;7.43;;
47960;SDS011;33721;48.852;9.936;2024-02-16T08:08:04;11.35;;;6.22;;
47960;SDS011;33721;48.852;9.936;2024-02-16T08:10:30;13.98;;;5.85;;
47960;SDS011;33721;48.852;9.936;2024-02-16T08:12:55;15.25;;;6.20;;
47960;SDS011;33721;48.852;9.936;2024-02-16T08:15:21;12.25;;;5.93;;
47960;SDS011;33721;48.852;9.936;2024-02-16T08:17:50;13.23;;;6.75;;
47960;SDS011;33721;48.852;9.936;2024-02-16T08:20:16;11.65;;;6.32;;
47960;SDS011;33721;48.852;9.936;2024-02-16T08:22:42;11.70;;;6.22;;
47960;SDS011;33721;48.852;9.936;2024-02-16T08:25:08;12.35;;;5.70;;
47960;SDS011;33721;48.852;9.936;2024-02-16T08:27:34;7.63;;;4.57;;
47960;SDS011;33721;48.852;9.936;2024-02-16T08:30:00;9.02;;;5.15;;
47960;SDS011;33721;48.852;9.936;2024-02-16T08:32:27;12.20;;;4.80;;
47960;SDS011;33721;48.852;9.936;2024-02-16T08:34:53;9.68;;;5.20;;
47960;SDS011;33721;48.852;9.936;2024-02-16T08:37:21;12.07;;;5.03;;
47960;SDS011;33721;48.852;9.936;2024-02-16T08:39:46;9.95;;;4.80;;
47960;SDS011;33721;48.852;9.936;2024-02-16T08:42:12;12.35;;;5.28;;
47960;SDS011;33721;48.852;9.936;2024-02-16T08:44:38;12.20;;;5.80;;
47960;SDS011;33721;48.852;9.936;2024-02-16T08:47:05;14.45;;;5.85;;
47960;SDS011;33721;48.852;9.936;2024-02-16T08:49:32;8.98;;;5.18;;
47960;SDS011;33721;48.852;9.936;2024-02-16T08:51:58;18.65;;;5.68;;
47960;SDS011;33721;48.852;9.936;2024-02-16T08:54:24;11.00;;;5.38;;
47960;SDS011;33721;48.852;9.936;2024-02-16T08:56:50;9.55;;;5.32;;
47960;SDS011;33721;48.852;9.936;2024-02-16T08:59:16;10.77;;;5.55;;
47960;SDS011;33721;48.852;9.936;2024-02-16T09:01:43;10.43;;;6.25;;
47960;SDS011;33721;48.852;9.936;2024-02-16T09:04:08;14.60;;;5.82;;
47960;SDS011;33721;48.852;9.936;2024-02-16T09:06:34;11.30;;;5.68;;
47960;SDS011;33721;48.852;9.936;2024-02-16T09:09:00;12.73;;;5.85;;
47960;SDS011;33721;48.852;9.936;2024-02-16T09:11:26;11.10;;;5.25;;
47960;SDS011;33721;48.852;9.936;2024-02-16T09:13:52;10.23;;;5.20;;
47960;SDS011;33721;48.852;9.936;2024-02-16T09:16:18;13.10;;;5.68;;
47960;SDS011;33721;48.852;9.936;2024-02-16T09:18:44;14.00;;;6.50;;
47960;SDS011;33721;48.852;9.936;2024-02-16T09:21:10;12.88;;;6.45;;
47960;SDS011;33721;48.852;9.936;2024-02-16T09:23:36;12.27;;;6.00;;
47960;SDS011;33721;48.852;9.936;2024-02-16T09:26:02;13.60;;;6.32;;
47960;SDS011;33721;48.852;9.936;2024-02-16T09:28:28;15.90;;;5.22;;
47960;SDS011;33721;48.852;9.936;2024-02-16T09:30:54;10.85;;;4.85;;
47960;SDS011;33721;48.852;9.936;2024-02-16T09:33:20;9.88;;;5.50;;
47960;SDS011;33721;48.852;9.936;2024-02-16T09:35:47;11.32;;;5.43;;
47960;SDS011;33721;48.852;9.936;2024-02-16T09:38:13;10.80;;;5.30;;
47960;SDS011;33721;48.852;9.936;2024-02-16T09:40:38;11.60;;;5.40;;
47960;SDS011;33721;48.852;9.936;2024-02-16T09:43:05;13.35;;;5.22;;
47960;SDS011;33721;48.852;9.936;2024-02-16T09:45:30;9.95;;;4.72;;
47960;SDS011;33721;48.852;9.936;2024-02-16T09:47:58;8.77;;;4.53;;
47960;SDS011;33721;48.852;9.936;2024-02-16T09:50:25;7.65;;;3.95;;
47960;SDS011;33721;48.852;9.936;2024-02-16T09:52:52;7.28;;;4.03;;
47960;SDS011;33721;48.852;9.936;2024-02-16T09:55:19;6.93;;;3.70;;
47960;SDS011;33721;48.852;9.936;2024-02-16T09:57:44;7.95;;;3.55;;
47960;SDS011;33721;48.852;9.936;2024-02-16T10:00:11;7.53;;;2.63;;
47960;SDS011;33721;48.852;9.936;2024-02-16T10:02:44;8.27;;;2.83;;
47960;SDS011;33721;48.852;9.936;2024-02-16T10:05:20;6.30;;;2.97;;
47960;SDS011;33721;48.852;9.936;2024-02-16T10:07:46;5.10;;;2.65;;
47960;SDS011;33721;48.852;9.936;2024-02-16T10:10:28;6.03;;;2.38;;
47960;SDS011;33721;48.852;9.936;2024-02-16T10:13:00;4.85;;;2.47;;
47960;SDS011;33721;48.852;9.936;2024-02-16T10:15:26;4.60;;;2.50;;
47960;SDS011;33721;48.852;9.936;2024-02-16T10:18:01;5.35;;;2.70;;
47960;SDS011;33721;48.852;9.936;2024-02-16T10:20:28;6.32;;;3.15;;
47960;SDS011;33721;48.852;9.936;2024-02-16T10:23:10;11.10;;;2.80;;
47960;SDS011;33721;48.852;9.936;2024-02-16T10:25:40;7.68;;;3.25;;
47960;SDS011;33721;48.852;9.936;2024-02-16T10:28:07;10.27;;;3.25;;
47960;SDS011;33721;48.852;9.936;2024-02-16T10:30:40;6.32;;;2.97;;
47960;SDS011;33721;48.852;9.936;2024-02-16T10:33:09;5.82;;;2.88;;
47960;SDS011;33721;48.852;9.936;2024-02-16T10:35:37;9.50;;;3.22;;
47960;SDS011;33721;48.852;9.936;2024-02-16T10:38:04;6.57;;;2.65;;
47960;SDS011;33721;48.852;9.936;2024-02-16T10:40:34;11.55;;;2.50;;
47960;SDS011;33721;48.852;9.936;2024-02-16T10:43:03;6.43;;;2.83;;
47960;SDS011;33721;48.852;9.936;2024-02-16T10:45:33;6.75;;;2.40;;
47960;SDS011;33721;48.852;9.936;2024-02-16T10:48:01;6.20;;;2.55;;
47960;SDS011;33721;48.852;9.936;2024-02-16T10:50:31;4.43;;;1.90;;
47960;SDS011;33721;48.852;9.936;2024-02-16T10:52:59;5.18;;;2.17;;
47960;SDS011;33721;48.852;9.936;2024-02-16T10:55:30;5.68;;;2.25;;
47960;SDS011;33721;48.852;9.936;2024-02-16T10:57:56;6.60;;;2.00;;
47960;SDS011;33721;48.852;9.936;2024-02-16T11:00:22;6.57;;;2.13;;
47960;SDS011;33721;48.852;9.936;2024-02-16T11:02:58;5.45;;;2.35;;
47960;SDS011;33721;48.852;9.936;2024-02-16T11:05:46;4.20;;;1.48;;
47960;SDS011;33721;48.852;9.936;2024-02-16T11:08:12;4.28;;;2.13;;
47960;SDS011;33721;48.852;9.936;2024-02-16T11:10:39;5.63;;;2.40;;
47960;SDS011;33721;48.852;9.936;2024-02-16T11:13:05;6.35;;;2.13;;
47960;SDS011;33721;48.852;9.936;2024-02-16T11:15:32;6.60;;;1.88;;
47960;SDS011;33721;48.852;9.936;2024-02-16T11:18:02;6.75;;;2.10;;
47960;SDS011;33721;48.852;9.936;2024-02-16T11:20:29;4.38;;;2.13;;
47960;SDS011;33721;48.852;9.936;2024-02-16T11:23:08;6.63;;;2.00;;
47960;SDS011;33721;48.852;9.936;2024-02-16T11:25:34;6.13;;;2.00;;
47960;SDS011;33721;48.852;9.936;2024-02-16T11:28:01;6.07;;;2.08;;
47960;SDS011;33721;48.852;9.936;2024-02-16T11:30:28;5.43;;;2.05;;
47960;SDS011;33721;48.852;9.936;2024-02-16T11:32:58;4.47;;;2.27;;
47960;SDS011;33721;48.852;9.936;2024-02-16T11:35:23;4.25;;;2.00;;
47960;SDS011;33721;48.852;9.936;2024-02-16T11:37:49;4.03;;;1.95;;
47960;SDS011;33721;48.852;9.936;2024-02-16T11:40:16;9.35;;;2.47;;
47960;SDS011;33721;48.852;9.936;2024-02-16T11:42:41;12.35;;;2.70;;
47960;SDS011;33721;48.852;9.936;2024-02-16T11:45:10;6.63;;;2.60;;
47960;SDS011;33721;48.852;9.936;2024-02-16T11:47:37;6.93;;;3.03;;
47960;SDS011;33721;48.852;9.936;2024-02-16T11:50:04;5.03;;;2.40;;
47960;SDS011;33721;48.852;9.936;2024-02-16T11:52:31;7.68;;;2.78;;
47960;SDS011;33721;48.852;9.936;2024-02-16T11:54:57;4.25;;;2.28;;
47960;SDS011;33721;48.852;9.936;2024-02-16T11:57:25;4.05;;;2.35;;
47960;SDS011;33721;48.852;9.936;2024-02-16T11:59:51;4.97;;;2.40;;
47960;SDS011;33721;48.852;9.936;2024-02-16T12:02:20;6.10;;;2.35;;
47960;SDS011;33721;48.852;9.936;2024-02-16T12:04:47;6.97;;;2.72;;
47960;SDS011;33721;48.852;9.936;2024-02-16T12:07:13;8.13;;;2.33;;
47960;SDS011;33721;48.852;9.936;2024-02-16T12:09:41;7.53;;;2.78;;
47960;SDS011;33721;48.852;9.936;2024-02-16T12:12:07;4.88;;;2.35;;
47960;SDS011;33721;48.852;9.936;2024-02-16T12:14:32;8.00;;;2.50;;
47960;SDS011;33721;48.852;9.936;2024-02-16T12:16:59;4.05;;;2.47;;
47960;SDS011;33721;48.852;9.936;2024-02-16T12:19:25;4.93;;;2.40;;
47960;SDS011;33721;48.852;9.936;2024-02-16T12:21:51;5.72;;;2.88;;
47960;SDS011;33721;48.852;9.936;2024-02-16T12:24:17;4.10;;;2.15;;
47960;SDS011;33721;48.852;9.936;2024-02-16T12:26:43;6.90;;;2.70;;
47960;SDS011;33721;48.852;9.936;2024-02-16T12:29:09;7.00;;;2.20;;
47960;SDS011;33721;48.852;9.936;2024-02-16T12:31:40;4.97;;;2.42;;
47960;SDS011;33721;48.852;9.936;2024-02-16T12:34:07;8.32;;;2.05;;
47960;SDS011;33721;48.852;9.936;2024-02-16T12:36:34;4.47;;;2.42;;
47960;SDS011;33721;48.852;9.936;2024-02-16T12:39:00;6.05;;;2.13;;
47960;SDS011;33721;48.852;9.936;2024-02-16T12:41:27;8.95;;;2.80;;
47960;SDS011;33721;48.852;9.936;2024-02-16T12:43:54;6.95;;;2.08;;
47960;SDS011;33721;48.852;9.936;2024-02-16T12:46:19;4.47;;;2.35;;
47960;SDS011;33721;48.852;9.936;2024-02-16T12:48:45;4.50;;;1.98;;
47960;SDS011;33721;48.852;9.936;2024-02-16T12:51:10;10.50;;;2.33;;
47960;SDS011;33721;48.852;9.936;2024-02-16T12:53:36;8.38;;;2.13;;
47960;SDS011;33721;48.852;9.936;2024-02-16T12:56:08;8.10;;;2.10;;
47960;SDS011;33721;48.852;9.936;2024-02-16T12:58:37;9.80;;;2.25;;
47960;SDS011;33721;48.852;9.936;2024-02-16T13:01:04;6.75;;;2.10;;
47960;SDS011;33721;48.852;9.936;2024-02-16T13:03:36;7.32;;;2.10;;
47960;SDS011;33721;48.852;9.936;2024-02-16T13:06:02;11.02;;;2.20;;
47960;SDS011;33721;48.852;9.936;2024-02-16T13:08:29;6.38;;;2.15;;
47960;SDS011;33721;48.852;9.936;2024-02-16T13:10:55;7.50;;;2.17;;
47960;SDS011;33721;48.852;9.936;2024-02-16T13:13:22;10.52;;;2.58;;
47960;SDS011;33721;48.852;9.936;2024-02-16T13:15:48;8.75;;;2.60;;
47960;SDS011;33721;48.852;9.936;2024-02-16T13:18:14;9.95;;;2.50;;
47960;SDS011;33721;48.852;9.936;2024-02-16T13:20:40;12.60;;;2.42;;
47960;SDS011;33721;48.852;9.936;2024-02-16T13:23:05;7.45;;;3.00;;
47960;SDS011;33721;48.852;9.936;2024-02-16T13:25:31;12.13;;;2.58;;
47960;SDS011;33721;48.852;9.936;2024-02-16T13:27:57;7.00;;;1.98;;
47960;SDS011;33721;48.852;9.936;2024-02-16T13:30:24;8.65;;;2.53;;
47960;SDS011;33721;48.852;9.936;2024-02-16T13:32:52;5.97;;;2.50;;
47960;SDS011;33721;48.852;9.936;2024-02-16T13:35:18;5.10;;;1.95;;
47960;SDS011;33721;48.852;9.936;2024-02-16T13:37:44;15.45;;;2.42;;
47960;SDS011;33721;48.852;9.936;2024-02-16T13:40:10;10.75;;;2.40;;
47960;SDS011;33721;48.852;9.936;2024-02-16T13:42:39;8.82;;;2.20;;
47960;SDS011;33721;48.852;9.936;2024-02-16T13:45:06;11.60;;;2.42;;
47960;SDS011;33721;48.852;9.936;2024-02-16T13:47:36;6.85;;;2.00;;
47960;SDS011;33721;48.852;9.936;2024-02-16T13:50:05;12.18;;;2.35;;
47960;SDS011;33721;48.852;9.936;2024-02-16T13:52:31;10.88;;;2.10;;
47960;SDS011;33721;48.852;9.936;2024-02-16T13:54:57;9.95;;;2.33;;
47960;SDS011;33721;48.852;9.936;2024-02-16T13:57:22;6.65;;;2.30;;
47960;SDS011;33721;48.852;9.936;2024-02-16T13:59:48;11.90;;;2.92;;
47960;SDS011;33721;48.852;9.936;2024-02-16T14:02:14;8.63;;;2.92;;
47960;SDS011;33721;48.852;9.936;2024-02-16T14:04:40;10.02;;;2.70;;
47960;SDS011;33721;48.852;9.936;2024-02-16T14:07:06;5.28;;;2.10;;
47960;SDS011;33721;48.852;9.936;2024-02-16T14:09:32;9.57;;;3.17;;
47960;SDS011;33721;48.852;9.936;2024-02-16T14:11:57;6.22;;;2.30;;
47960;SDS011;33721;48.852;9.936;2024-02-16T14:14:24;8.73;;;2.20;;
47960;SDS011;33721;48.852;9.936;2024-02-16T14:16:50;10.68;;;3.00;;
47960;SDS011;33721;48.852;9.936;2024-02-16T14:19:16;8.23;;;2.58;;
47960;SDS011;33721;48.852;9.936;2024-02-16T14:21:45;5.70;;;2.22;;
47960;SDS011;33721;48.852;9.936;2024-02-16T14:24:12;8.80;;;2.70;;
47960;SDS011;33721;48.852;9.936;2024-02-16T14:26:38;10.38;;;2.92;;
47960;SDS011;33721;48.852;9.936;2024-02-16T14:29:06;9.65;;;2.58;;
47960;SDS011;33721;48.852;9.936;2024-02-16T14:31:32;4.90;;;2.47;;
47960;SDS011;33721;48.852;9.936;2024-02-16T14:33:58;7.35;;;2.70;;
47960;SDS011;33721;48.852;9.936;2024-02-16T14:36:27;9.27;;;3.03;;